createdAt,value
2023-04-06T00:02:20.327Z,3.85
2023-04-06T00:07:22.540Z,4.30
2023-04-06T00:12:24.701Z,4.05
2023-04-06T00:17:26.913Z,3.83
2023-04-06T00:22:29.192Z,4.47
2023-04-06T00:27:31.813Z,3.90
2023-04-06T00:32:34.087Z,4.50
2023-04-06T00:37:36.378Z,4.97
2023-04-06T00:42:38.944Z,4.32
2023-04-06T00:47:41.421Z,4.50
2023-04-06T00:52:43.773Z,6.15
2023-04-06T00:57:46.150Z,5.07
2023-04-06T01:02:49.453Z,4.43
2023-04-06T01:07:51.659Z,3.80
2023-04-06T01:12:53.864Z,4.55
2023-04-06T01:17:56.091Z,4.65
2023-04-06T01:22:58.269Z,5.18
2023-04-06T01:28:00.470Z,5.22
2023-04-06T01:33:02.795Z,5.50
2023-04-06T01:38:05.065Z,5.70
2023-04-06T01:43:07.909Z,7.10
2023-04-06T01:48:10.065Z,7.32
2023-04-06T01:53:12.244Z,7.47
2023-04-06T01:58:15.057Z,7.65
2023-04-06T02:03:17.277Z,7.75
2023-04-06T02:08:19.544Z,7.88
2023-04-06T02:13:21.734Z,7.95
2023-04-06T02:18:24.038Z,7.95
2023-04-06T02:23:26.473Z,7.93
2023-04-06T02:28:28.698Z,7.45
2023-04-06T02:33:31.107Z,7.32
2023-04-06T02:38:33.348Z,7.18
2023-04-06T02:43:36.331Z,7.05
2023-04-06T02:48:38.725Z,7.53
2023-04-06T02:53:41.147Z,6.70
2023-04-06T02:58:43.360Z,7.38
2023-04-06T03:03:46.089Z,7.85
2023-04-06T03:08:48.700Z,7.88
2023-04-06T03:13:51.096Z,7.75
2023-04-06T03:18:53.281Z,7.75
2023-04-06T03:23:55.412Z,8.20
2023-04-06T03:28:57.601Z,8.60
2023-04-06T03:34:00.672Z,8.20
2023-04-06T03:39:02.886Z,8.57
2023-04-06T03:44:05.183Z,8.90
2023-04-06T03:49:07.975Z,8.85
2023-04-06T03:54:10.639Z,9.80
2023-04-06T03:59:12.961Z,9.15
2023-04-06T04:04:15.238Z,8.55
2023-04-06T04:09:17.636Z,9.18
2023-04-06T04:14:19.785Z,8.50
2023-04-06T04:19:22.325Z,9.90
2023-04-06T04:24:24.513Z,8.43
2023-04-06T04:29:27.072Z,10.20
2023-04-06T04:34:29.705Z,9.55
2023-04-06T04:39:32.404Z,8.52
2023-04-06T04:44:34.541Z,8.73
2023-04-06T04:49:36.863Z,9.50
2023-04-06T04:54:39.448Z,8.40
2023-04-06T04:59:41.745Z,7.95
2023-04-06T05:04:43.933Z,8.63
2023-04-06T05:09:46.416Z,8.48
2023-04-06T05:14:48.651Z,8.13
2023-04-06T05:19:51.080Z,8.10
2023-04-06T05:24:53.353Z,7.88
2023-04-06T05:29:57.774Z,8.50
2023-04-06T05:35:00.506Z,8.57
2023-04-06T05:40:02.780Z,8.73
2023-04-06T05:45:05.825Z,9.00
2023-04-06T05:50:09.423Z,8.27
2023-04-06T05:55:12.791Z,8.02
2023-04-06T06:00:16.179Z,7.85
2023-04-06T06:05:18.488Z,7.32
2023-04-06T06:10:20.747Z,7.82
2023-04-06T06:15:22.901Z,7.68
2023-04-06T06:20:25.124Z,7.00
2023-04-06T06:25:27.523Z,7.72
2023-04-06T06:30:29.719Z,7.65
2023-04-06T06:35:31.939Z,7.03
2023-04-06T06:40:35.259Z,9.23
2023-04-06T06:45:39.111Z,7.13
2023-04-06T06:50:41.353Z,6.22
2023-04-06T06:55:45.499Z,5.55
2023-04-06T07:00:48.078Z,4.97
2023-04-06T07:05:54.577Z,5.38
2023-04-06T07:10:59.623Z,6.43
2023-04-06T07:16:01.917Z,6.38
2023-04-06T07:21:04.312Z,5.20
2023-04-06T07:26:06.445Z,4.93
2023-04-06T07:31:08.546Z,4.80
2023-04-06T07:36:10.772Z,5.20
2023-04-06T07:41:13.105Z,4.90
2023-04-06T07:46:15.300Z,5.47
2023-04-06T07:51:18.852Z,4.82
2023-04-06T07:56:22.221Z,5.55
2023-04-06T08:01:24.483Z,5.35
2023-04-06T08:06:27.587Z,5.00
2023-04-06T08:11:29.749Z,5.05
2023-04-06T08:16:32.013Z,5.00
2023-04-06T08:21:34.884Z,4.82
2023-04-06T08:26:37.033Z,4.63
2023-04-06T08:31:39.226Z,5.53
2023-04-06T08:36:41.743Z,4.70
2023-04-06T08:41:45.023Z,4.68
2023-04-06T08:46:47.804Z,4.90
2023-04-06T08:51:51.507Z,4.90
2023-04-06T08:56:54.505Z,5.25
2023-04-06T09:01:57.262Z,4.70
2023-04-06T09:06:59.471Z,5.15
2023-04-06T09:12:07.064Z,5.70
2023-04-06T09:17:09.693Z,5.60
2023-04-06T09:22:11.906Z,5.90
2023-04-06T09:27:15.815Z,5.65
2023-04-06T09:32:18.480Z,5.13
2023-04-06T09:37:20.836Z,5.00
2023-04-06T09:42:27.036Z,5.00
2023-04-06T09:47:31.766Z,4.60
2023-04-06T09:52:41.010Z,5.72
2023-04-06T09:57:49.071Z,5.93
2023-04-06T10:03:02.542Z,5.50
2023-04-06T10:08:10.267Z,4.97
2023-04-06T10:13:13.315Z,5.40
2023-04-06T10:18:16.856Z,5.50
2023-04-06T10:23:24.836Z,5.90
2023-04-06T10:28:32.307Z,5.18
2023-04-06T10:33:35.081Z,5.43
2023-04-06T10:38:41.749Z,5.47
2023-04-06T10:43:44.534Z,5.72
2023-04-06T10:48:48.078Z,5.88
2023-04-06T10:53:50.911Z,6.10
2023-04-06T10:58:55.181Z,5.35
2023-04-06T11:04:01.852Z,5.68
2023-04-06T11:09:04.183Z,5.45
2023-04-06T11:14:06.358Z,4.50
2023-04-06T11:19:09.170Z,3.80
2023-04-06T11:24:14.107Z,3.70
2023-04-06T11:29:22.340Z,3.85
2023-04-06T11:34:26.073Z,3.53
2023-04-06T11:39:29.708Z,5.45
2023-04-06T11:44:47.238Z,4.88
2023-04-06T11:49:49.635Z,5.32
2023-04-06T11:54:54.001Z,5.50
2023-04-06T11:59:56.891Z,4.80
2023-04-06T12:04:59.224Z,4.95
2023-04-06T12:10:03.978Z,3.97
2023-04-06T12:15:06.805Z,3.58
2023-04-06T12:20:17.985Z,3.20
2023-04-06T12:25:27.843Z,3.90
2023-04-06T12:30:30.199Z,3.30
2023-04-06T12:35:35.938Z,2.92
2023-04-06T12:40:41.715Z,2.63
2023-04-06T12:45:43.918Z,3.20
2023-04-06T12:50:46.161Z,3.38
2023-04-06T12:55:48.315Z,3.50
2023-04-06T13:00:51.593Z,3.30
2023-04-06T13:05:54.005Z,2.92
2023-04-06T13:10:56.481Z,3.20
2023-04-06T13:16:03.923Z,2.42
2023-04-06T13:21:07.667Z,3.17
2023-04-06T13:26:09.845Z,2.67
2023-04-06T13:31:12.183Z,3.25
2023-04-06T13:36:16.690Z,3.28
2023-04-06T13:41:24.385Z,2.92
2023-04-06T13:46:27.168Z,3.83
2023-04-06T13:51:29.686Z,3.83
2023-04-06T13:56:31.783Z,4.13
2023-04-06T14:01:33.921Z,3.85
2023-04-06T14:06:36.497Z,3.95
2023-04-06T14:11:39.437Z,3.85
2023-04-06T14:16:45.261Z,4.35
2023-04-06T14:21:47.884Z,3.83
2023-04-06T14:26:50.109Z,6.35
2023-04-06T14:31:52.301Z,4.07
2023-04-06T14:36:54.773Z,5.95
2023-04-06T14:41:57.503Z,4.22
2023-04-06T14:46:59.837Z,4.65
2023-04-06T14:52:02.060Z,4.40
2023-04-06T14:57:04.760Z,4.93
2023-04-06T15:02:06.983Z,4.80
2023-04-06T15:07:09.140Z,4.68
2023-04-06T15:12:11.748Z,6.60
2023-04-06T15:17:14.108Z,6.90
2023-04-06T15:22:16.658Z,5.80
2023-04-06T15:27:18.826Z,5.90
2023-04-06T15:32:21.496Z,7.43
2023-04-06T15:37:23.937Z,3.45
2023-04-06T15:42:26.283Z,4.60
2023-04-06T15:47:28.440Z,2.90
2023-04-06T15:52:30.633Z,2.95
2023-04-06T15:57:33.186Z,3.33
2023-04-06T16:02:35.895Z,3.92
2023-04-06T16:07:38.705Z,3.88
2023-04-06T16:12:42.730Z,3.65
2023-04-06T16:17:44.954Z,3.40
2023-04-06T16:22:48.349Z,3.38
2023-04-06T16:27:50.690Z,3.55
2023-04-06T16:32:53.617Z,3.65
2023-04-06T16:37:55.860Z,3.65
2023-04-06T16:42:58.067Z,3.47
2023-04-06T16:48:00.273Z,3.70
2023-04-06T16:53:02.748Z,3.67
2023-04-06T16:58:04.910Z,4.63
2023-04-06T17:03:07.260Z,5.90
2023-04-06T17:08:09.719Z,4.63
2023-04-06T17:13:11.948Z,4.28
2023-04-06T17:18:14.401Z,6.05
2023-04-06T17:23:17.081Z,5.80
2023-04-06T17:28:19.218Z,5.97
2023-04-06T17:33:22.521Z,7.03
2023-04-06T17:38:25.405Z,7.95
2023-04-06T17:43:27.819Z,6.97
2023-04-06T17:48:30.235Z,7.80
2023-04-06T17:53:34.774Z,22.42
2023-04-06T17:58:36.981Z,19.85
2023-04-06T18:03:39.516Z,12.38
2023-04-06T18:08:42.575Z,10.10
2023-04-06T18:13:45.668Z,14.07
2023-04-06T18:18:48.135Z,12.77
2023-04-06T18:23:50.326Z,16.95
2023-04-06T18:28:52.858Z,14.10
2023-04-06T18:33:55.338Z,10.27
2023-04-06T18:38:57.828Z,10.45
2023-04-06T18:44:00.240Z,10.90
2023-04-06T18:49:04.739Z,9.55
2023-04-06T18:54:06.872Z,10.65
2023-04-06T18:59:13.597Z,10.60
2023-04-06T19:04:16.410Z,10.18
2023-04-06T19:09:18.971Z,10.07
2023-04-06T19:14:21.113Z,9.85
2023-04-06T19:19:23.375Z,9.35
2023-04-06T19:24:26.399Z,9.32
2023-04-06T19:29:28.606Z,10.48
2023-04-06T19:34:30.891Z,12.73
2023-04-06T19:39:34.858Z,7.88
2023-04-06T19:44:37.203Z,8.13
2023-04-06T19:49:41.087Z,9.15
2023-04-06T19:54:43.300Z,8.32
2023-04-06T19:59:45.396Z,8.30
2023-04-06T20:04:47.547Z,9.23
2023-04-06T20:09:49.644Z,6.95
2023-04-06T20:14:51.852Z,6.88
2023-04-06T20:19:54.631Z,6.55
2023-04-06T20:24:56.830Z,6.88
2023-04-06T20:29:59.070Z,7.30
2023-04-06T20:35:01.352Z,7.47
2023-04-06T20:40:04.616Z,6.80
2023-04-06T20:45:07.289Z,7.20
2023-04-06T20:50:09.752Z,6.30
2023-04-06T20:55:11.996Z,5.22
2023-04-06T21:00:14.997Z,5.25
2023-04-06T21:05:17.334Z,4.93
2023-04-06T21:10:19.536Z,4.65
2023-04-06T21:15:21.858Z,4.57
2023-04-06T21:20:24.079Z,4.07
2023-04-06T21:25:26.250Z,4.50
2023-04-06T21:30:28.458Z,5.20
2023-04-06T21:35:30.588Z,5.15
2023-04-06T21:40:32.776Z,6.35
2023-04-06T21:45:35.125Z,5.65
2023-04-06T21:50:40.805Z,4.85
2023-04-06T21:55:47.215Z,5.28
2023-04-06T22:00:49.526Z,9.73
2023-04-06T22:05:51.726Z,6.22
2023-04-06T22:10:53.877Z,8.00
2023-04-06T22:15:56.483Z,8.73
2023-04-06T22:20:58.969Z,7.35
2023-04-06T22:26:01.236Z,6.10
2023-04-06T22:31:03.707Z,6.93
2023-04-06T22:36:06.257Z,6.05
2023-04-06T22:41:08.663Z,6.38
2023-04-06T22:46:11.071Z,6.07
2023-04-06T22:51:13.168Z,6.03
2023-04-06T22:56:15.249Z,6.60
2023-04-06T23:01:17.440Z,6.80
2023-04-06T23:06:19.816Z,7.95
2023-04-06T23:11:22.703Z,6.95
2023-04-06T23:16:24.998Z,7.00
2023-04-06T23:21:27.777Z,8.05
2023-04-06T23:26:30.035Z,6.72
2023-04-06T23:31:32.135Z,7.88
2023-04-06T23:36:34.782Z,7.15
2023-04-06T23:41:37.722Z,8.75
2023-04-06T23:46:39.881Z,8.50
2023-04-06T23:51:41.982Z,8.50
2023-04-06T23:56:44.079Z,9.13
